sensor_id;sensor_type;location;lat;lon;timestamp;P1;durP1;ratioP1;P2;durP2;ratioP2
12072;SDS011;6098;49.004;8.372;2023-06-14T00:14:19;7.71;;;4.28;;
12072;SDS011;6098;49.004;8.372;2023-06-14T00:29:10;6.21;;;4.69;;
12072;SDS011;6098;49.004;8.372;2023-06-14T00:44:03;4.76;;;4.24;;
12072;SDS011;6098;49.004;8.372;2023-06-14T00:58:56;6.47;;;4.14;;
12072;SDS011;6098;49.004;8.372;2023-06-14T01:13:47;9.99;;;4.44;;
12072;SDS011;6098;49.004;8.372;2023-06-14T01:28:38;5.71;;;4.31;;
12072;SDS011;6098;49.004;8.372;2023-06-14T01:43:30;5.30;;;4.11;;
12072;SDS011;6098;49.004;8.372;2023-06-14T01:58:21;5.07;;;4.09;;
12072;SDS011;6098;49.004;8.372;2023-06-14T02:13:14;6.15;;;3.99;;
12072;SDS011;6098;49.004;8.372;2023-06-14T02:28:08;6.69;;;4.60;;
12072;SDS011;6098;49.004;8.372;2023-06-14T02:42:58;5.40;;;4.36;;
12072;SDS011;6098;49.004;8.372;2023-06-14T02:57:51;5.40;;;4.58;;
12072;SDS011;6098;49.004;8.372;2023-06-14T03:12:41;4.82;;;4.32;;
12072;SDS011;6098;49.004;8.372;2023-06-14T03:27:34;7.83;;;5.07;;
12072;SDS011;6098;49.004;8.372;2023-06-14T03:42:25;6.89;;;5.12;;
12072;SDS011;6098;49.004;8.372;2023-06-14T03:57:17;5.62;;;5.01;;
12072;SDS011;6098;49.004;8.372;2023-06-14T04:12:09;5.94;;;4.63;;
12072;SDS011;6098;49.004;8.372;2023-06-14T04:27:02;7.80;;;5.89;;
12072;SDS011;6098;49.004;8.372;2023-06-14T04:41:54;7.09;;;5.82;;
12072;SDS011;6098;49.004;8.372;2023-06-14T04:56:47;6.26;;;5.31;;
12072;SDS011;6098;49.004;8.372;2023-06-14T05:11:40;6.22;;;5.31;;
12072;SDS011;6098;49.004;8.372;2023-06-14T05:26:32;6.22;;;5.49;;
12072;SDS011;6098;49.004;8.372;2023-06-14T05:41:27;7.44;;;6.11;;
12072;SDS011;6098;49.004;8.372;2023-06-14T05:56:24;7.41;;;5.49;;
12072;SDS011;6098;49.004;8.372;2023-06-14T06:11:17;6.80;;;4.94;;
12072;SDS011;6098;49.004;8.372;2023-06-14T06:26:09;8.93;;;5.37;;
12072;SDS011;6098;49.004;8.372;2023-06-14T06:41:02;6.54;;;5.72;;
12072;SDS011;6098;49.004;8.372;2023-06-14T06:55:54;8.51;;;5.59;;
12072;SDS011;6098;49.004;8.372;2023-06-14T07:10:49;7.36;;;5.53;;
12072;SDS011;6098;49.004;8.372;2023-06-14T07:25:48;5.44;;;4.74;;
12072;SDS011;6098;49.004;8.372;2023-06-14T07:40:41;6.04;;;5.10;;
12072;SDS011;6098;49.004;8.372;2023-06-14T07:55:34;7.24;;;4.99;;
12072;SDS011;6098;49.004;8.372;2023-06-14T08:10:26;7.14;;;4.96;;
12072;SDS011;6098;49.004;8.372;2023-06-14T08:25:19;5.95;;;5.14;;
12072;SDS011;6098;49.004;8.372;2023-06-14T08:40:21;6.05;;;4.78;;
12072;SDS011;6098;49.004;8.372;2023-06-14T08:55:18;7.96;;;4.47;;
12072;SDS011;6098;49.004;8.372;2023-06-14T09:10:12;5.89;;;4.56;;
12072;SDS011;6098;49.004;8.372;2023-06-14T09:25:05;6.64;;;4.65;;
12072;SDS011;6098;49.004;8.372;2023-06-14T09:39:59;5.56;;;4.56;;
12072;SDS011;6098;49.004;8.372;2023-06-14T09:54:53;6.27;;;4.94;;
12072;SDS011;6098;49.004;8.372;2023-06-14T17:17:18;6.38;;;3.77;;
12072;SDS011;6098;49.004;8.372;2023-06-14T17:32:12;5.33;;;3.90;;
12072;SDS011;6098;49.004;8.372;2023-06-14T17:47:13;6.00;;;4.30;;
12072;SDS011;6098;49.004;8.372;2023-06-14T18:02:03;4.71;;;4.11;;
12072;SDS011;6098;49.004;8.372;2023-06-14T18:16:53;4.48;;;4.08;;
12072;SDS011;6098;49.004;8.372;2023-06-14T18:31:44;5.78;;;4.17;;
12072;SDS011;6098;49.004;8.372;2023-06-14T18:46:36;5.07;;;3.91;;
12072;SDS011;6098;49.004;8.372;2023-06-14T19:01:28;4.81;;;4.18;;
12072;SDS011;6098;49.004;8.372;2023-06-14T19:16:20;4.47;;;4.07;;
12072;SDS011;6098;49.004;8.372;2023-06-14T19:31:12;4.52;;;3.97;;
12072;SDS011;6098;49.004;8.372;2023-06-14T19:46:04;4.59;;;4.19;;
12072;SDS011;6098;49.004;8.372;2023-06-14T20:00:56;5.78;;;4.41;;
12072;SDS011;6098;49.004;8.372;2023-06-14T20:15:48;8.17;;;4.78;;
12072;SDS011;6098;49.004;8.372;2023-06-14T20:30:40;7.84;;;4.30;;
12072;SDS011;6098;49.004;8.372;2023-06-14T20:45:33;5.80;;;4.47;;
12072;SDS011;6098;49.004;8.372;2023-06-14T21:00:23;4.28;;;3.87;;
12072;SDS011;6098;49.004;8.372;2023-06-14T21:15:15;5.94;;;4.11;;
12072;SDS011;6098;49.004;8.372;2023-06-14T21:30:07;5.61;;;4.71;;
12072;SDS011;6098;49.004;8.372;2023-06-14T21:45:01;5.12;;;4.62;;
12072;SDS011;6098;49.004;8.372;2023-06-14T21:59:55;8.55;;;4.69;;
12072;SDS011;6098;49.004;8.372;2023-06-14T22:14:47;7.01;;;4.64;;
12072;SDS011;6098;49.004;8.372;2023-06-14T22:29:39;6.85;;;5.28;;
12072;SDS011;6098;49.004;8.372;2023-06-14T22:44:30;9.71;;;5.31;;
12072;SDS011;6098;49.004;8.372;2023-06-14T22:59:23;6.45;;;4.57;;
12072;SDS011;6098;49.004;8.372;2023-06-14T23:14:15;7.16;;;4.91;;
12072;SDS011;6098;49.004;8.372;2023-06-14T23:29:06;8.20;;;4.68;;
12072;SDS011;6098;49.004;8.372;2023-06-14T23:44:02;5.24;;;4.74;;
12072;SDS011;6098;49.004;8.372;2023-06-14T23:58:54;5.41;;;4.59;;
